Time;durP1;ratioP1;P1;durP2;ratioP2;P2;SDS_P1;SDS_P2;PMS_P1;PMS_P2;Temp;Humidity;BMP_temperature;BMP_pressure;BME280_temperature;BME280_humidity;BME280_pressure;Samples;Min_cycle;Max_cycle;Signal;HPM_P1;HPM_P2
2023/07/16 00:03:02;;;;;;;2.67;1.05;;;;;;;21.19;77.57;99928.34;10283351;28;20059;-73
2023/07/16 00:08:04;;;;;;;2.08;1.13;;;;;;;21.11;78.21;99931.56;10277094;28;20063;-74
2023/07/16 00:13:06;;;;;;;2.70;1.17;;;;;;;21.17;77.40;99894.16;10275212;28;20063;-73
2023/07/16 00:18:07;;;;;;;1.52;0.80;;;;;;;21.17;77.74;99866.84;10281243;28;20545;-73
2023/07/16 00:23:09;;;;;;;3.00;1.00;;;;;;;21.09;77.30;99870.00;10264544;28;20051;-73
2023/07/16 00:28:11;;;;;;;4.38;1.08;;;;;;;21.02;77.63;99918.59;10281203;28;20059;-74
2023/07/16 00:33:13;;;;;;;3.17;1.02;;;;;;;21.04;77.74;99909.03;10258347;28;20051;-74
2023/07/16 00:38:14;;;;;;;1.15;0.60;;;;;;;21.00;78.10;99908.72;10278317;28;20343;-73
2023/07/16 00:43:16;;;;;;;4.32;1.17;;;;;;;21.03;77.96;99898.38;10274392;28;20114;-73
2023/07/16 00:48:19;;;;;;;1.80;0.80;;;;;;;20.97;77.67;99897.47;10266843;28;20089;-73
2023/07/16 00:53:21;;;;;;;1.55;0.70;;;;;;;20.96;77.58;99923.16;10274355;28;20061;-73
2023/07/16 00:58:22;;;;;;;1.65;0.60;;;;;;;20.95;76.91;99943.38;10272763;28;20065;-74
2023/07/16 01:03:24;;;;;;;3.63;0.90;;;;;;;20.96;77.13;99925.91;10276999;28;20603;-74
2023/07/16 01:08:39;;;;;;;0.98;0.70;;;;;;;20.95;76.67;99897.75;10276222;28;20110;-74
2023/07/16 01:13:42;;;;;;;2.15;0.70;;;;;;;20.94;76.68;99923.41;10279457;28;20082;-74
2023/07/16 01:18:44;;;;;;;1.00;0.70;;;;;;;20.93;76.38;99916.31;10279198;28;20059;-73
2023/07/16 01:23:59;;;;;;;2.63;0.70;;;;;;;20.96;76.11;99925.91;10281293;28;20113;-73
2023/07/16 01:29:13;;;;;;;1.25;0.70;;;;;;;20.94;76.42;99941.72;10280027;28;20336;-73
2023/07/16 01:34:15;;;;;;;2.15;0.80;;;;;;;20.91;75.98;99961.34;10288174;28;20442;-75
2023/07/16 01:39:18;;;;;;;2.28;0.88;;;;;;;20.91;75.97;99959.47;10283384;28;20054;-75
2023/07/16 01:44:19;;;;;;;3.38;0.93;;;;;;;20.93;75.79;99981.06;10284857;28;20106;-75
2023/07/16 01:49:20;;;;;;;2.47;0.60;;;;;;;20.84;75.47;99988.88;10287912;28;20079;-74
2023/07/16 01:54:22;;;;;;;1.30;0.57;;;;;;;20.78;75.83;99993.44;10280558;28;20138;-75
2023/07/16 01:59:23;;;;;;;1.98;0.60;;;;;;;20.82;75.57;100003.88;10286608;28;20118;-74
2023/07/16 02:04:25;;;;;;;2.30;0.57;;;;;;;20.77;75.16;100008.19;10281703;28;20066;-75
2023/07/16 02:09:26;;;;;;;2.58;0.60;;;;;;;20.80;75.02;100001.38;10283689;28;20343;-73
2023/07/16 02:14:27;;;;;;;3.55;0.80;;;;;;;20.75;74.66;100007.63;10280967;28;20199;-74
2023/07/16 02:19:29;;;;;;;0.85;0.50;;;;;;;20.68;74.73;100015.16;10282292;28;20122;-74
2023/07/16 02:24:30;;;;;;;1.58;0.75;;;;;;;20.66;74.67;100028.25;10286890;28;20101;-74
2023/07/16 02:29:32;;;;;;;1.02;0.57;;;;;;;20.75;74.16;100018.53;10277471;28;20130;-74
2023/07/16 02:34:33;;;;;;;3.40;0.65;;;;;;;20.74;74.25;100035.19;10263475;28;20367;-74
2023/07/16 02:39:35;;;;;;;1.20;0.80;;;;;;;20.72;74.46;100040.06;10279186;28;20077;-74
2023/07/16 02:44:41;;;;;;;2.25;0.80;;;;;;;20.68;74.23;100058.84;10282116;28;20113;-74
2023/07/16 02:49:43;;;;;;;1.45;0.70;;;;;;;20.73;74.46;100058.91;10283840;28;20126;-74
2023/07/16 02:54:44;;;;;;;5.28;1.20;;;;;;;20.65;74.13;100070.28;10277706;28;20089;-73
2023/07/16 02:59:46;;;;;;;3.45;0.80;;;;;;;20.72;73.94;100075.59;10282280;28;20054;-71
2023/07/16 03:04:47;;;;;;;6.50;1.05;;;;;;;20.79;73.41;100088.00;10259215;28;20042;-72
2023/07/16 03:09:48;;;;;;;1.67;0.70;;;;;;;20.77;73.20;100087.41;10279218;28;20059;-73
2023/07/16 03:14:50;;;;;;;2.97;0.57;;;;;;;20.75;73.74;100081.38;10280915;28;20077;-73
2023/07/16 03:19:52;;;;;;;3.80;0.93;;;;;;;20.73;73.73;100091.69;10284113;28;20054;-73
2023/07/16 03:24:53;;;;;;;10.90;1.30;;;;;;;20.80;73.40;100089.63;10279112;28;20051;-73
2023/07/16 03:29:55;;;;;;;6.45;0.63;;;;;;;20.86;73.13;100095.19;10273770;28;20085;-74
2023/07/16 03:34:56;;;;;;;2.80;0.90;;;;;;;20.82;73.08;100103.06;10284858;28;20070;-72
2023/07/16 03:40:13;;;;;;;1.23;0.70;;;;;;;20.87;72.78;100110.50;10282595;28;20057;-75
2023/07/16 03:45:14;;;;;;;2.15;0.70;;;;;;;20.95;72.44;100110.91;10274608;28;20235;-73
2023/07/16 03:50:16;;;;;;;6.38;1.13;;;;;;;20.89;72.90;100130.19;10271195;28;20299;-72
2023/07/16 03:55:18;;;;;;;5.22;0.95;;;;;;;20.89;72.91;100127.47;10280019;28;20054;-73
2023/07/16 04:00:19;;;;;;;1.80;0.70;;;;;;;20.91;72.65;100128.03;10277757;28;20374;-75
2023/07/16 04:05:20;;;;;;;3.63;0.95;;;;;;;20.95;72.66;100132.78;10279689;28;20111;-70
2023/07/16 04:10:25;;;;;;;8.55;0.90;;;;;;;20.83;72.52;100134.75;10273777;28;20062;-72
2023/07/16 04:15:26;;;;;;;3.47;0.88;;;;;;;20.88;72.42;100142.22;10282065;28;20065;-72
2023/07/16 04:20:28;;;;;;;7.10;1.33;;;;;;;20.83;72.42;100142.94;10275593;28;20059;-72
2023/07/16 04:25:30;;;;;;;3.35;1.13;;;;;;;20.84;72.24;100146.53;10275930;28;20043;-71
2023/07/16 04:30:31;;;;;;;5.03;1.00;;;;;;;20.76;72.51;100156.78;10281299;28;20126;-73
2023/07/16 04:35:33;;;;;;;5.20;0.80;;;;;;;20.69;72.59;100161.56;10280180;28;20063;-71
2023/07/16 04:40:35;;;;;;;3.88;0.80;;;;;;;20.67;72.19;100171.91;10281055;28;20433;-71
2023/07/16 04:45:36;;;;;;;3.50;0.70;;;;;;;20.65;71.91;100179.53;10264994;28;20396;-73
2023/07/16 04:50:38;;;;;;;2.65;0.90;;;;;;;20.67;71.51;100177.38;10279897;28;20114;-75
2023/07/16 04:55:40;;;;;;;2.17;0.90;;;;;;;20.69;71.53;100182.59;10273756;28;20081;-73
2023/07/16 05:00:41;;;;;;;4.57;0.73;;;;;;;20.70;71.04;100187.00;10278554;28;20047;-73
2023/07/16 05:05:43;;;;;;;3.20;0.90;;;;;;;20.73;70.77;100191.94;10286197;28;20252;-72
2023/07/16 05:10:44;;;;;;;3.80;0.57;;;;;;;20.86;70.59;100201.75;10280970;28;20123;-73
2023/07/16 05:15:46;;;;;;;5.20;0.73;;;;;;;20.98;69.87;100210.69;10280197;28;20062;-73
2023/07/16 05:20:48;;;;;;;4.00;1.05;;;;;;;21.08;69.94;100213.56;10285866;28;20062;-74
2023/07/16 05:25:50;;;;;;;8.60;2.05;;;;;;;21.22;68.99;100213.25;10286830;28;20092;-74
2023/07/16 05:30:59;;;;;;;5.72;0.75;;;;;;;21.18;68.94;100227.41;10269311;28;20067;-76
2023/07/16 05:36:01;;;;;;;6.53;1.17;;;;;;;21.12;68.84;100233.88;10284735;28;20062;-74
2023/07/16 05:41:03;;;;;;;2.17;0.70;;;;;;;21.16;68.19;100245.97;10287493;28;20126;-74
2023/07/16 05:46:05;;;;;;;4.85;0.88;;;;;;;21.18;67.84;100246.53;10263365;28;20043;-73
2023/07/16 05:51:06;;;;;;;5.60;0.70;;;;;;;21.24;67.50;100249.38;10283129;28;20243;-74
2023/07/16 05:56:08;;;;;;;3.63;0.90;;;;;;;21.12;67.47;100252.19;10281070;28;20054;-76
2023/07/16 06:01:09;;;;;;;4.93;0.70;;;;;;;21.19;67.64;100253.69;10274569;28;20134;-72
2023/07/16 06:06:11;;;;;;;6.68;0.98;;;;;;;21.20;67.40;100257.22;10270818;28;20057;-73
2023/07/16 06:11:13;;;;;;;4.43;0.82;;;;;;;21.23;66.73;100262.22;10279052;28;20118;-72
2023/07/16 06:16:14;;;;;;;4.70;1.00;;;;;;;21.21;66.77;100253.44;10284231;28;20054;-72
2023/07/16 06:21:16;;;;;;;4.30;1.30;;;;;;;21.23;66.31;100254.00;10282235;28;20110;-73
2023/07/16 06:26:17;;;;;;;2.75;0.85;;;;;;;21.36;65.90;100266.50;10281809;28;20114;-74
2023/07/16 06:31:19;;;;;;;3.47;1.08;;;;;;;21.35;65.87;100264.88;10260669;28;20438;-73
2023/07/16 06:36:25;;;;;;;4.03;0.60;;;;;;;21.20;65.98;100269.00;10282155;28;20066;-71
2023/07/16 06:41:27;;;;;;;5.22;0.98;;;;;;;21.08;65.33;100256.50;10282232;28;20083;-71
2023/07/16 06:46:28;;;;;;;3.75;0.98;;;;;;;21.28;64.48;100269.66;10277828;28;20070;-75
2023/07/16 06:51:31;;;;;;;6.20;0.98;;;;;;;21.24;63.60;100274.78;10285214;28;20097;-73
2023/07/16 06:56:32;;;;;;;9.30;0.75;;;;;;;21.26;63.42;100269.09;10279149;28;20081;-71
2023/07/16 07:01:34;;;;;;;4.10;0.80;;;;;;;21.49;62.45;100273.59;10278293;28;20126;-71
2023/07/16 07:06:35;;;;;;;1.73;0.82;;;;;;;21.57;61.53;100265.78;10283154;28;20047;-72
2023/07/16 07:11:37;;;;;;;4.10;0.80;;;;;;;21.75;61.17;100274.78;10282556;28;20059;-74
2023/07/16 07:16:39;;;;;;;3.88;0.85;;;;;;;21.85;60.45;100276.84;10271613;28;20682;-70
2023/07/16 07:21:41;;;;;;;5.63;0.80;;;;;;;21.92;59.56;100278.31;10278237;28;20047;-72
2023/07/16 07:26:43;;;;;;;11.10;1.20;;;;;;;21.85;59.24;100269.44;10280379;28;20047;-72
2023/07/16 07:31:44;;;;;;;2.25;0.88;;;;;;;22.08;58.55;100265.66;10272619;28;20106;-74
2023/07/16 07:36:46;;;;;;;5.38;1.05;;;;;;;22.30;57.73;100284.03;10271521;28;20612;-74
2023/07/16 07:41:47;;;;;;;4.60;0.82;;;;;;;22.51;57.17;100285.06;10276779;28;20115;-73
2023/07/16 07:46:48;;;;;;;7.72;1.77;;;;;;;22.69;56.40;100295.69;10278480;28;20062;-73
2023/07/16 07:51:50;;;;;;;4.28;1.27;;;;;;;22.86;55.74;100289.28;10278936;28;20047;-74
2023/07/16 07:56:51;;;;;;;4.00;1.17;;;;;;;22.94;54.79;100295.09;10280675;28;20055;-73
2023/07/16 08:01:53;;;;;;;3.38;0.65;;;;;;;23.10;54.94;100282.41;10277525;28;20130;-73
2023/07/16 08:06:54;;;;;;;7.70;1.50;;;;;;;23.16;54.33;100291.50;10278009;28;20418;-74
2023/07/16 08:11:55;;;;;;;5.05;0.90;;;;;;;23.04;53.67;100294.41;10258198;28;20111;-74
2023/07/16 08:16:57;;;;;;;3.20;0.90;;;;;;;23.15;53.22;100279.72;10274652;28;20111;-74
2023/07/16 08:21:58;;;;;;;4.93;0.90;;;;;;;23.32;52.34;100303.41;10274861;28;20308;-73
2023/07/16 08:26:59;;;;;;;5.97;1.13;;;;;;;23.32;52.93;100295.19;10271335;28;20062;-73
2023/07/16 08:32:01;;;;;;;5.18;0.80;;;;;;;23.36;51.41;100308.16;10277674;28;20062;-73
2023/07/16 08:37:03;;;;;;;3.83;0.68;;;;;;;23.24;50.14;100301.97;10274517;28;20385;-75
2023/07/16 08:42:05;;;;;;;3.70;1.02;;;;;;;23.25;49.63;100300.91;10291252;28;20059;-80
2023/07/16 08:47:07;;;;;;;10.63;0.88;;;;;;;23.39;49.09;100306.78;10272148;28;20373;-76
2023/07/16 08:52:09;;;;;;;4.90;0.80;;;;;;;23.37;48.31;100311.72;10283469;28;20066;-80
2023/07/16 08:57:11;;;;;;;4.25;1.65;;;;;;;23.46;48.10;100304.66;10288060;28;20077;-82
2023/07/16 09:02:13;;;;;;;3.50;0.60;;;;;;;23.68;47.32;100311.94;10288215;28;20066;-80
2023/07/16 09:07:15;;;;;;;4.63;0.77;;;;;;;23.52;47.41;100320.06;10292329;28;20116;-78
2023/07/16 09:12:17;;;;;;;4.70;0.65;;;;;;;23.28;46.41;100311.38;10284445;28;20075;-78
2023/07/16 09:17:24;;;;;;;2.38;0.52;;;;;;;23.50;46.68;100314.00;10285491;28;20294;-81
2023/07/16 09:22:26;;;;;;;1.38;0.70;;;;;;;23.85;46.06;100323.59;10284074;28;20055;-76
2023/07/16 09:27:29;;;;;;;5.72;0.80;;;;;;;23.81;46.36;100313.41;10280253;28;20051;-77
2023/07/16 09:32:41;;;;;;;5.47;1.13;;;;;;;23.92;46.57;100320.63;10266416;28;20126;-77
2023/07/16 09:37:43;;;;;;;3.28;0.90;;;;;;;24.02;45.67;100315.19;10275943;28;20053;-77
2023/07/16 09:42:44;;;;;;;5.50;0.80;;;;;;;24.01;45.18;100326.44;10291449;28;20081;-77
2023/07/16 09:47:46;;;;;;;3.67;0.70;;;;;;;24.12;45.33;100319.91;10295041;28;20061;-77
2023/07/16 09:52:48;;;;;;;2.38;0.80;;;;;;;24.38;44.63;100309.03;10294847;28;20061;-76
2023/07/16 09:57:53;;;;;;;2.92;0.60;;;;;;;24.47;44.16;100311.00;10282328;28;20078;-76
2023/07/16 10:02:55;;;;;;;4.65;0.60;;;;;;;24.49;44.14;100314.31;10279931;28;20272;-74
2023/07/16 10:08:00;;;;;;;2.25;0.50;;;;;;;24.76;43.03;100318.78;10287819;28;20109;-75
2023/07/16 10:13:02;;;;;;;2.25;0.70;;;;;;;24.93;42.75;100322.13;10280124;28;20352;-77
2023/07/16 10:18:03;;;;;;;4.57;0.85;;;;;;;25.09;42.47;100317.47;10281254;28;20404;-76
2023/07/16 10:23:16;;;;;;;5.85;0.80;;;;;;;25.27;41.49;100329.09;10277898;28;20051;-76
2023/07/16 10:28:17;;;;;;;4.03;0.60;;;;;;;25.54;41.25;100315.06;10303430;28;20051;-78
2023/07/16 10:33:19;;;;;;;4.53;0.75;;;;;;;25.67;40.59;100319.16;10287415;28;20126;-78
2023/07/16 10:38:21;;;;;;;5.18;0.80;;;;;;;25.75;40.21;100317.75;10288804;28;20070;-77
2023/07/16 10:43:23;;;;;;;3.65;0.85;;;;;;;25.80;39.92;100315.00;10285160;28;20042;-77
2023/07/16 10:48:26;;;;;;;1.60;0.70;;;;;;;25.71;38.70;100311.97;10275678;28;20062;-77
2023/07/16 10:53:27;;;;;;;1.92;0.77;;;;;;;25.63;38.41;100309.78;10274824;28;20498;-77
2023/07/16 10:58:29;;;;;;;4.53;0.55;;;;;;;25.76;38.02;100314.75;10281406;28;20059;-75
2023/07/16 11:03:30;;;;;;;1.65;0.60;;;;;;;25.95;37.91;100316.91;10265623;28;20504;-75
2023/07/16 11:08:32;;;;;;;5.97;0.80;;;;;;;25.73;37.64;100316.13;10279439;28;20070;-76
2023/07/16 11:13:33;;;;;;;8.13;1.00;;;;;;;25.79;37.57;100311.44;10280715;28;20062;-75
2023/07/16 11:18:35;;;;;;;4.20;0.60;;;;;;;26.15;37.24;100308.59;10263996;28;20134;-77
2023/07/16 11:23:37;;;;;;;4.78;1.30;;;;;;;26.26;36.93;100314.91;10283251;28;20077;-76
2023/07/16 11:28:40;;;;;;;2.90;0.70;;;;;;;26.49;36.53;100300.47;10294493;28;20059;-75
2023/07/16 11:33:45;;;;;;;2.47;0.73;;;;;;;26.32;36.69;100311.00;10278685;28;20276;-75
2023/07/16 11:38:48;;;;;;;2.88;0.63;;;;;;;26.53;35.83;100300.72;10286644;28;20195;-74
2023/07/16 11:43:50;;;;;;;3.45;0.70;;;;;;;26.49;35.82;100307.91;10279054;28;20059;-73
2023/07/16 11:48:51;;;;;;;2.25;0.65;;;;;;;26.61;34.88;100304.84;10272927;28;20059;-73
2023/07/16 11:53:55;;;;;;;4.97;0.90;;;;;;;26.65;34.15;100301.22;10283447;28;20082;-74
2023/07/16 11:58:57;;;;;;;3.22;1.02;;;;;;;26.77;34.03;100294.53;10285746;28;20110;-73
2023/07/16 12:03:58;;;;;;;1.95;0.70;;;;;;;26.81;33.28;100298.38;10277973;28;20122;-74
2023/07/16 12:09:00;;;;;;;3.60;0.65;;;;;;;26.71;33.00;100297.31;10279446;28;20085;-72
2023/07/16 12:14:01;;;;;;;4.10;0.85;;;;;;;26.76;33.14;100304.75;10281330;28;20137;-73
2023/07/16 12:19:02;;;;;;;1.65;0.75;;;;;;;26.95;32.80;100291.09;10278994;28;20065;-74
2023/07/16 12:24:05;;;;;;;2.40;0.60;;;;;;;27.46;32.55;100285.19;10282439;28;20057;-72
2023/07/16 12:29:06;;;;;;;3.15;0.70;;;;;;;27.56;31.87;100284.28;10284331;28;20058;-72
2023/07/16 12:34:08;;;;;;;2.95;0.57;;;;;;;27.40;32.13;100275.31;10292303;28;20062;-70
2023/07/16 12:39:09;;;;;;;3.45;1.13;;;;;;;27.63;31.33;100278.41;10274221;28;20118;-74
2023/07/16 12:44:11;;;;;;;1.55;0.70;;;;;;;27.93;31.27;100280.06;10275486;28;20089;-73
2023/07/16 12:49:12;;;;;;;4.05;1.10;;;;;;;27.98;31.08;100285.53;10280461;28;20073;-73
2023/07/16 12:54:14;;;;;;;2.17;0.80;;;;;;;28.33;30.17;100279.84;10272440;28;20078;-73
2023/07/16 12:59:15;;;;;;;1.83;0.80;;;;;;;28.31;29.44;100284.84;10294500;28;20122;-76
2023/07/16 13:04:17;;;;;;;3.85;0.73;;;;;;;28.86;28.97;100280.47;10262176;28;20263;-72
2023/07/16 13:09:18;;;;;;;4.95;0.90;;;;;;;28.95;29.28;100279.78;10280807;28;20106;-72
2023/07/16 13:14:19;;;;;;;2.03;0.90;;;;;;;28.78;28.74;100281.16;10271975;28;20055;-71
2023/07/16 13:19:21;;;;;;;3.20;0.98;;;;;;;28.55;28.62;100279.28;10277585;28;20067;-72
2023/07/16 13:24:22;;;;;;;2.30;1.00;;;;;;;28.98;28.59;100281.97;10287982;28;20085;-73
2023/07/16 13:29:24;;;;;;;5.15;1.40;;;;;;;28.60;28.58;100280.03;10284919;28;20351;-72
2023/07/16 13:34:25;;;;;;;2.15;1.10;;;;;;;29.40;28.13;100281.00;10287300;28;20340;-73
2023/07/16 13:39:26;;;;;;;3.08;1.27;;;;;;;29.67;28.21;100277.47;10284781;28;20048;-73
2023/07/16 13:44:28;;;;;;;2.85;1.02;;;;;;;29.70;27.72;100267.75;10286925;28;20070;-73
2023/07/16 13:49:30;;;;;;;4.18;1.13;;;;;;;30.11;27.27;100269.69;10283301;28;20348;-73
2023/07/16 13:54:31;;;;;;;4.47;1.10;;;;;;;30.62;26.84;100279.72;10283121;28;20453;-73
2023/07/16 13:59:32;;;;;;;5.13;1.23;;;;;;;31.85;25.51;100266.69;10281329;28;20058;-77
2023/07/16 14:04:34;;;;;;;2.45;0.85;;;;;;;31.89;25.25;100273.22;10283512;28;20118;-77
2023/07/16 14:09:35;;;;;;;2.50;1.10;;;;;;;31.69;25.44;100272.66;10288744;28;20043;-76
2023/07/16 14:14:37;;;;;;;2.78;1.10;;;;;;;31.95;24.79;100275.56;10297117;28;20059;-76
2023/07/16 14:19:38;;;;;;;3.22;1.20;;;;;;;31.56;24.96;100282.75;10284008;28;20050;-77
2023/07/16 14:24:40;;;;;;;1.80;1.00;;;;;;;30.50;25.55;100279.44;10280356;28;20069;-73
2023/07/16 14:29:41;;;;;;;5.00;1.60;;;;;;;29.92;26.51;100285.63;10279412;28;20122;-77
2023/07/16 14:35:03;;;;;;;3.53;1.25;;;;;;;30.15;26.09;100267.94;10282969;28;20086;-77
2023/07/16 14:40:07;;;;;;;3.42;1.40;;;;;;;29.88;26.30;100290.13;10278526;28;20046;-75
2023/07/16 14:45:09;;;;;;;4.68;1.30;;;;;;;29.69;26.55;100265.28;10277493;28;20078;-74
2023/07/16 14:50:11;;;;;;;2.50;1.25;;;;;;;29.86;26.76;100262.75;10280462;28;20071;-76
2023/07/16 14:55:12;;;;;;;2.97;1.08;;;;;;;29.63;26.89;100268.13;10290161;28;20050;-75
2023/07/16 15:00:14;;;;;;;3.08;1.10;;;;;;;29.17;26.92;100257.88;10278967;28;20054;-75
2023/07/16 15:05:15;;;;;;;4.80;1.45;;;;;;;29.66;26.04;100250.91;10263480;28;20066;-73
2023/07/16 15:10:17;;;;;;;6.05;1.77;;;;;;;29.65;26.38;100254.78;10283840;28;20073;-74
2023/07/16 15:15:18;;;;;;;3.60;1.20;;;;;;;29.66;26.91;100259.22;10277822;28;20385;-73
2023/07/16 15:20:20;;;;;;;2.33;1.40;;;;;;;30.07;25.92;100252.03;10301245;28;20115;-74
2023/07/16 15:25:22;;;;;;;6.07;1.30;;;;;;;30.64;25.37;100257.22;10278954;28;20070;-73
2023/07/16 15:30:23;;;;;;;3.97;1.75;;;;;;;30.58;25.98;100256.50;10280249;28;20047;-73
2023/07/16 15:35:24;;;;;;;3.42;1.30;;;;;;;31.07;24.85;100255.94;10279606;28;20122;-76
2023/07/16 15:40:26;;;;;;;4.28;1.10;;;;;;;31.01;25.45;100253.28;10278141;28;20127;-74
2023/07/16 15:45:27;;;;;;;4.07;1.80;;;;;;;30.83;25.61;100259.81;10279907;28;20061;-74
2023/07/16 15:50:29;;;;;;;4.65;1.50;;;;;;;30.71;25.22;100246.50;10274100;28;20153;-74
2023/07/16 15:55:30;;;;;;;2.83;1.35;;;;;;;30.60;25.06;100257.00;10281545;28;20125;-74
2023/07/16 16:00:31;;;;;;;3.22;1.20;;;;;;;30.81;25.18;100251.81;10278092;28;20323;-74
2023/07/16 16:05:33;;;;;;;5.35;1.50;;;;;;;30.81;25.56;100251.81;10282141;28;20121;-75
2023/07/16 16:10:34;;;;;;;3.20;1.35;;;;;;;30.52;25.33;100252.22;10276426;28;20093;-75
2023/07/16 16:15:36;;;;;;;3.55;1.20;;;;;;;30.39;25.57;100251.13;10276835;28;20059;-74
2023/07/16 16:20:38;;;;;;;4.45;1.27;;;;;;;30.44;25.26;100256.53;10262488;28;20051;-75
2023/07/16 16:25:40;;;;;;;2.92;1.27;;;;;;;30.34;25.19;100244.88;10275844;28;20133;-75
2023/07/16 16:30:41;;;;;;;4.07;1.30;;;;;;;30.30;25.56;100241.84;10277847;28;20123;-74
2023/07/16 16:35:43;;;;;;;2.85;1.42;;;;;;;30.58;25.45;100225.97;10276595;23;20054;-70
2023/07/16 16:40:45;;;;;;;3.83;1.50;;;;;;;30.53;25.71;100239.16;10252570;28;20392;-69
2023/07/16 16:45:48;;;;;;;3.90;1.50;;;;;;;30.18;25.43;100234.06;10248045;28;20074;-67
2023/07/16 16:50:54;;;;;;;4.57;1.50;;;;;;;30.02;25.46;100235.53;10233863;28;20422;-69
2023/07/16 16:55:55;;;;;;;;;;;;;;;30.45;25.42;100232.38;10244147;28;20051;-68
2023/07/16 17:00:57;;;;;;;3.90;1.35;;;;;;;30.74;25.34;100233.94;10257747;28;19922;-69
2023/07/16 17:06:00;;;;;;;3.72;1.67;;;;;;;30.23;25.67;100238.69;10261654;28;20055;-71
2023/07/16 17:11:01;;;;;;;4.90;1.40;;;;;;;30.07;25.38;100249.28;10260303;28;20798;-68
2023/07/16 17:16:03;;;;;;;4.72;1.95;;;;;;;30.34;25.06;100239.31;10268354;28;20059;-70
2023/07/16 17:21:05;;;;;;;6.55;2.15;;;;;;;30.54;24.89;100240.81;10258968;28;20498;-67
2023/07/16 17:26:06;;;;;;;4.07;1.50;;;;;;;30.26;25.06;100240.84;10237585;28;20058;-70
2023/07/16 17:31:08;;;;;;;3.97;1.45;;;;;;;29.93;24.73;100243.75;10261456;28;20059;-69
2023/07/16 17:36:11;;;;;;;5.13;1.67;;;;;;;30.08;25.31;100242.63;10256635;28;20046;-69
2023/07/16 17:41:13;;;;;;;8.07;1.75;;;;;;;30.36;25.09;100239.81;10256942;28;20462;-69
2023/07/16 17:46:14;;;;;;;4.45;1.60;;;;;;;30.11;25.13;100239.19;10256782;28;20061;-72
2023/07/16 17:51:16;;;;;;;5.78;2.15;;;;;;;30.07;25.34;100245.69;10262441;28;20051;-72
2023/07/16 17:56:18;;;;;;;3.97;2.05;;;;;;;30.15;25.48;100243.00;10257520;28;20047;-72
2023/07/16 18:01:21;;;;;;;5.38;1.58;;;;;;;30.25;25.57;100255.81;10252011;28;20047;-68
2023/07/16 18:06:23;;;;;;;4.50;1.60;;;;;;;29.97;26.07;100255.03;10264879;28;20114;-66
2023/07/16 18:11:24;;;;;;;4.57;2.00;;;;;;;30.11;25.65;100249.47;10265872;28;20051;-66
2023/07/16 18:16:26;;;;;;;4.60;2.00;;;;;;;29.74;25.82;100249.41;10268915;28;20043;-69
2023/07/16 18:21:29;;;;;;;7.30;2.13;;;;;;;29.15;27.00;100253.75;10269256;28;20051;-70
2023/07/16 18:26:41;;;;;;;6.63;2.38;;;;;;;28.74;26.89;100258.00;10288839;28;20055;-66
2023/07/16 18:31:42;;;;;;;5.47;2.58;;;;;;;28.33;27.45;100252.19;10272872;28;20050;-70
2023/07/16 18:36:44;;;;;;;6.28;2.10;;;;;;;28.09;28.07;100253.06;10250905;28;20047;-71
2023/07/16 18:41:45;;;;;;;5.55;2.22;;;;;;;27.83;28.51;100256.09;10259231;28;20048;-69
2023/07/16 18:46:46;;;;;;;8.65;2.60;;;;;;;27.55;28.36;100265.22;10281455;28;20051;-70
2023/07/16 18:51:48;;;;;;;4.32;2.10;;;;;;;27.42;29.12;100269.50;10281352;28;20070;-70
2023/07/16 18:56:50;;;;;;;3.30;1.60;;;;;;;27.36;29.29;100263.19;10285797;28;20053;-69
2023/07/16 19:01:51;;;;;;;6.78;2.50;;;;;;;27.23;29.84;100270.19;10299952;28;20049;-68
2023/07/16 19:06:53;;;;;;;4.97;1.92;;;;;;;27.14;29.91;100280.22;10279118;28;20058;-68
2023/07/16 19:11:55;;;;;;;6.50;2.17;;;;;;;26.99;29.80;100275.63;10277923;28;20057;-70
2023/07/16 19:16:57;;;;;;;4.75;2.42;;;;;;;26.80;30.44;100280.19;10274679;28;20129;-68
2023/07/16 19:21:58;;;;;;;4.38;1.80;;;;;;;26.58;30.75;100286.94;10261519;28;20059;-68
2023/07/16 19:27:01;;;;;;;4.47;1.75;;;;;;;26.47;31.10;100280.63;10266111;28;20059;-70
2023/07/16 19:32:03;;;;;;;7.28;2.28;;;;;;;26.21;31.37;100284.63;10282498;28;20188;-66
2023/07/16 19:37:07;;;;;;;8.18;3.17;;;;;;;26.06;31.86;100289.06;10286195;28;20047;-66
2023/07/16 19:42:09;;;;;;;5.32;2.30;;;;;;;25.90;31.93;100293.78;10271600;28;20043;-66
2023/07/16 19:47:10;;;;;;;6.15;2.50;;;;;;;25.76;32.47;100303.72;10295486;28;20074;-66
2023/07/16 19:52:12;;;;;;;4.85;2.80;;;;;;;25.67;32.53;100305.38;10296907;28;20054;-65
2023/07/16 19:57:13;;;;;;;6.18;3.00;;;;;;;25.52;32.45;100311.75;10308904;28;20054;-65
2023/07/16 20:02:15;;;;;;;7.03;3.17;;;;;;;25.37;33.31;100314.50;10300014;28;20049;-65
2023/07/16 20:07:16;;;;;;;7.78;2.83;;;;;;;25.22;33.13;100329.91;10299811;28;20114;-66
2023/07/16 20:12:18;;;;;;;5.80;2.88;;;;;;;25.00;34.06;100341.16;10261266;28;20062;-65
2023/07/16 20:17:19;;;;;;;10.93;2.20;;;;;;;24.69;34.77;100341.06;10252032;28;20058;-65
2023/07/16 20:22:23;;;;;;;7.20;2.10;;;;;;;24.40;34.83;100331.56;10258592;28;20051;-66
2023/07/16 20:27:25;;;;;;;5.00;1.95;;;;;;;24.33;35.13;100337.34;10260556;28;20051;-64
2023/07/16 20:32:27;;;;;;;6.15;2.50;;;;;;;24.27;35.49;100341.97;10238425;28;20058;-66
2023/07/16 20:37:29;;;;;;;5.60;3.05;;;;;;;24.08;35.91;100341.59;10253389;28;20051;-66
2023/07/16 20:42:31;;;;;;;9.63;1.75;;;;;;;23.85;36.90;100344.75;10253101;28;20411;-65
2023/07/16 20:47:32;;;;;;;6.68;1.80;;;;;;;23.51;37.59;100345.84;10248579;28;20058;-65
2023/07/16 20:52:34;;;;;;;11.90;2.67;;;;;;;23.32;38.12;100348.16;10254563;28;20892;-65
2023/07/16 20:57:42;;;;;;;6.80;2.25;;;;;;;23.31;38.41;100349.25;10258132;28;20054;-65
2023/07/16 21:02:45;;;;;;;7.00;2.25;;;;;;;23.15;38.90;100356.50;10247858;28;20043;-65
2023/07/16 21:07:48;;;;;;;5.18;2.60;;;;;;;22.92;39.27;100354.03;10258100;28;20083;-63
2023/07/16 21:13:02;;;;;;;5.63;2.25;;;;;;;22.77;40.00;100350.06;10249953;28;20142;-64
2023/07/16 21:18:04;;;;;;;5.32;1.90;;;;;;;22.48;40.42;100362.31;10254624;28;20043;-64
2023/07/16 21:23:07;;;;;;;5.78;2.65;;;;;;;22.15;41.19;100353.88;10257319;28;20058;-61
2023/07/16 21:28:08;;;;;;;6.00;2.72;;;;;;;22.18;41.18;100358.88;10255717;28;20062;-65
2023/07/16 21:33:10;;;;;;;6.60;2.20;;;;;;;22.11;41.55;100355.47;10266440;28;20118;-65
2023/07/16 21:38:12;;;;;;;5.38;2.55;;;;;;;21.97;42.60;100360.47;10277967;28;20492;-65
2023/07/16 21:43:14;;;;;;;6.65;2.53;;;;;;;21.89;43.02;100360.09;10297649;28;20089;-65
2023/07/16 21:48:16;;;;;;;8.07;2.42;;;;;;;21.75;42.97;100367.81;10292375;28;20047;-66
2023/07/16 21:53:18;;;;;;;5.97;2.03;;;;;;;21.65;43.56;100379.44;10262335;28;20059;-66
2023/07/16 21:58:19;;;;;;;5.88;2.63;;;;;;;21.54;43.57;100377.59;10276675;28;20145;-67
2023/07/16 22:03:21;;;;;;;6.05;2.67;;;;;;;21.46;44.51;100381.56;10296888;28;20192;-66
2023/07/16 22:08:23;;;;;;;7.07;2.55;;;;;;;21.38;45.13;100374.56;10290537;28;20058;-66
2023/07/16 22:13:26;;;;;;;5.43;2.38;;;;;;;21.27;45.76;100385.56;10286058;28;20129;-66
2023/07/16 22:18:29;;;;;;;4.13;2.17;;;;;;;21.13;45.99;100385.91;10277326;28;20118;-66
2023/07/16 22:23:30;;;;;;;8.13;3.30;;;;;;;21.11;46.57;100381.72;10292360;28;20070;-67
2023/07/16 22:28:32;;;;;;;6.68;2.67;;;;;;;21.02;46.90;100389.50;10294001;28;20132;-66
2023/07/16 22:33:35;;;;;;;6.10;3.15;;;;;;;20.91;46.90;100379.44;10275835;28;20129;-64
2023/07/16 22:38:37;;;;;;;4.05;2.45;;;;;;;20.88;47.59;100382.69;10261616;28;20047;-63
2023/07/16 22:43:38;;;;;;;7.43;2.90;;;;;;;20.76;47.81;100378.06;10249028;28;20550;-64
2023/07/16 22:48:41;;;;;;;6.75;2.70;;;;;;;20.62;47.88;100389.50;10267538;28;20047;-64
2023/07/16 22:53:42;;;;;;;6.72;2.65;;;;;;;20.55;48.06;100384.16;10271968;28;20043;-63
2023/07/16 22:58:44;;;;;;;8.55;2.97;;;;;;;20.49;48.41;100385.13;10260653;28;20077;-63
2023/07/16 23:03:45;;;;;;;5.25;2.53;;;;;;;20.46;48.39;100386.44;10253258;28;20106;-64
2023/07/16 23:08:47;;;;;;;5.95;2.78;;;;;;;20.41;48.59;100384.41;10256226;28;20403;-63